YMAV

Avalon Airport

Airport
ICAO code
YMAV
IATA Code
AVV
Summary
ICAO Region
APAC
ICAO Territory
Location

, Victoria

Serving
Avalon
Elevation
35 ft
Coordinates
38° 2' 22" S , 144° 28' 10" E
Metar
YMAV 221930Z AUTO 35006KT 9999 // OVC033 08/04 Q1027 RF00.0/000.0

Airport map

Aerial View

SKYbrary Partners:

Safety knowledge contributed by: